createdAt,value
2019-03-18T00:00:56.601Z,2.20
2019-03-18T00:03:27.455Z,2.80
2019-03-18T00:05:58.233Z,2.67
2019-03-18T00:08:29.033Z,2.77
2019-03-18T00:10:59.762Z,4.20
2019-03-18T00:13:30.602Z,2.40
2019-03-18T00:16:01.426Z,4.60
2019-03-18T00:18:32.300Z,2.30
2019-03-18T00:21:03.100Z,2.70
2019-03-18T00:23:33.937Z,2.43
2019-03-18T00:26:04.664Z,4.07
2019-03-18T00:28:35.411Z,3.27
2019-03-18T00:31:06.245Z,3.60
2019-03-18T00:33:37.092Z,3.73
2019-03-18T00:36:07.910Z,3.50
2019-03-18T00:38:38.637Z,3.43
2019-03-18T00:41:09.412Z,5.57
2019-03-18T00:43:40.252Z,3.03
2019-03-18T00:46:11.046Z,4.03
2019-03-18T00:48:41.887Z,4.60
2019-03-18T00:51:12.735Z,3.33
2019-03-18T00:53:43.106Z,3.00
2019-03-18T00:56:13.888Z,4.17
2019-03-18T00:58:44.640Z,3.50
2019-03-18T01:01:15.301Z,5.57
2019-03-18T01:03:46.086Z,5.63
2019-03-18T01:06:16.919Z,3.93
2019-03-18T01:08:47.659Z,4.27
2019-03-18T01:11:18.508Z,4.17
2019-03-18T01:13:49.321Z,4.40
2019-03-18T01:16:20.059Z,5.00
2019-03-18T01:18:50.793Z,4.63
2019-03-18T01:21:21.631Z,4.27
2019-03-18T01:23:52.361Z,5.87
2019-03-18T01:26:23.323Z,4.47
2019-03-18T01:28:54.167Z,4.30
2019-03-18T01:31:25.006Z,4.30
2019-03-18T01:33:55.847Z,5.13
2019-03-18T01:36:26.269Z,4.43
2019-03-18T01:38:56.970Z,4.67
2019-03-18T01:41:27.726Z,3.90
2019-03-18T01:43:58.574Z,5.30
2019-03-18T01:46:29.316Z,5.53
2019-03-18T01:49:00.132Z,3.77
2019-03-18T01:51:30.969Z,3.67
2019-03-18T01:54:01.551Z,3.43
2019-03-18T01:56:32.434Z,4.33
2019-03-18T01:59:03.355Z,5.07
2019-03-18T02:01:34.018Z,3.93
2019-03-18T02:04:04.855Z,3.90
2019-03-18T02:06:35.586Z,3.90
2019-03-18T02:09:06.672Z,5.43
2019-03-18T02:11:37.467Z,4.47
2019-03-18T02:14:08.312Z,4.07
2019-03-18T02:16:39.247Z,6.00
2019-03-18T02:19:09.974Z,4.33
2019-03-18T02:21:40.804Z,4.00
2019-03-18T02:24:11.183Z,5.57
2019-03-18T02:26:42.069Z,4.53
2019-03-18T02:29:12.921Z,4.77
2019-03-18T02:31:43.742Z,6.10
2019-03-18T02:34:14.779Z,4.83
2019-03-18T02:36:45.632Z,5.73
2019-03-18T02:39:16.357Z,4.70
2019-03-18T02:41:47.092Z,4.60
2019-03-18T02:44:17.819Z,5.73
2019-03-18T02:46:48.545Z,4.50
2019-03-18T02:49:19.294Z,4.97
2019-03-18T02:51:52.921Z,5.30
2019-03-18T02:54:22.624Z,7.13
2019-03-18T02:56:53.435Z,4.50
2019-03-18T02:59:24.187Z,6.23
2019-03-18T03:01:55.127Z,5.10
2019-03-18T03:04:25.534Z,5.03
2019-03-18T03:06:56.284Z,6.90
2019-03-18T03:09:26.797Z,5.70
2019-03-18T03:11:57.320Z,5.13
2019-03-18T03:14:28.165Z,5.17
2019-03-18T03:16:58.999Z,4.43
2019-03-18T03:19:29.849Z,4.67
2019-03-18T03:22:00.786Z,6.27
2019-03-18T03:24:31.602Z,6.00
2019-03-18T03:27:02.460Z,4.50
2019-03-18T03:29:33.181Z,5.50
2019-03-18T03:32:04.019Z,4.90
2019-03-18T03:34:34.857Z,4.53
2019-03-18T03:37:05.604Z,5.00
2019-03-18T03:39:36.422Z,4.97
2019-03-18T03:42:07.279Z,4.60
2019-03-18T03:44:38.125Z,5.03
2019-03-18T03:47:08.512Z,5.47
2019-03-18T03:49:40.106Z,5.23
2019-03-18T03:52:10.908Z,5.93
2019-03-18T03:54:41.760Z,4.60
2019-03-18T03:57:12.263Z,6.03
2019-03-18T03:59:42.941Z,4.90
2019-03-18T04:02:13.640Z,5.30
2019-03-18T04:04:44.375Z,6.03
2019-03-18T04:07:15.224Z,5.63
2019-03-18T04:09:46.049Z,5.70
2019-03-18T04:12:16.790Z,5.20
2019-03-18T04:14:47.520Z,6.33
2019-03-18T04:17:18.242Z,4.37
2019-03-18T04:19:48.995Z,4.07
2019-03-18T04:22:19.723Z,5.43
2019-03-18T04:24:50.216Z,6.23
2019-03-18T04:27:24.581Z,5.40
2019-03-18T04:29:53.555Z,5.67
2019-03-18T04:32:24.297Z,4.20
2019-03-18T04:34:55.134Z,5.20
2019-03-18T04:37:25.524Z,6.20
2019-03-18T04:39:56.296Z,5.57
2019-03-18T04:42:27.069Z,4.53
2019-03-18T04:44:57.484Z,5.23
2019-03-18T04:47:28.290Z,5.13
2019-03-18T04:49:59.169Z,5.27
2019-03-18T04:52:30.074Z,4.23
2019-03-18T04:55:00.799Z,4.67
2019-03-18T04:57:31.559Z,5.27
2019-03-18T05:00:02.402Z,5.07
2019-03-18T05:02:32.877Z,4.20
2019-03-18T05:05:03.837Z,4.83
2019-03-18T05:07:34.675Z,5.80
2019-03-18T05:10:10.219Z,4.83
2019-03-18T05:12:41.077Z,3.83
2019-03-18T05:15:12.036Z,4.37
2019-03-18T05:17:42.833Z,5.67
2019-03-18T05:20:13.246Z,6.53
2019-03-18T05:22:44.200Z,5.30
2019-03-18T05:25:15.057Z,4.63
2019-03-18T05:27:45.884Z,5.07
2019-03-18T05:30:16.634Z,4.47
2019-03-18T05:32:47.470Z,4.40
2019-03-18T05:35:18.296Z,4.23
2019-03-18T05:37:49.917Z,7.10
2019-03-18T05:40:20.813Z,4.77
2019-03-18T05:42:51.313Z,4.33
2019-03-18T05:45:22.272Z,6.63
2019-03-18T05:47:53.117Z,4.93
2019-03-18T05:50:23.925Z,4.30
2019-03-18T05:52:54.665Z,4.80
2019-03-18T05:55:25.363Z,6.63
2019-03-18T05:57:55.763Z,5.03
2019-03-18T06:00:28.551Z,5.93
2019-03-18T06:02:59.755Z,5.57
2019-03-18T06:05:30.692Z,6.10
2019-03-18T06:08:01.450Z,6.20
2019-03-18T06:10:32.388Z,7.30
2019-03-18T06:13:03.345Z,4.80
2019-03-18T06:15:34.237Z,6.60
2019-03-18T06:18:05.115Z,5.47
2019-03-18T06:20:38.403Z,5.17
2019-03-18T06:23:09.221Z,4.00
2019-03-18T06:25:40.135Z,9.00
2019-03-18T06:28:12.553Z,16.87
2019-03-18T06:30:43.361Z,9.63
2019-03-18T06:33:14.098Z,5.53
2019-03-18T06:35:45.571Z,5.23
2019-03-18T06:38:16.470Z,5.90
2019-03-18T06:40:47.317Z,7.17
2019-03-18T06:43:18.177Z,5.63
2019-03-18T06:45:48.991Z,4.77
2019-03-18T06:48:19.740Z,6.00
2019-03-18T06:50:50.460Z,4.30
2019-03-18T06:53:21.300Z,5.53
2019-03-18T06:55:52.192Z,5.97
2019-03-18T06:58:22.880Z,6.73
2019-03-18T07:00:53.599Z,5.33
2019-03-18T07:03:24.436Z,6.23
2019-03-18T07:05:55.284Z,4.70
2019-03-18T07:08:26.103Z,5.30
2019-03-18T07:10:56.847Z,5.33
2019-03-18T07:13:27.796Z,4.63
2019-03-18T07:16:00.162Z,5.93
2019-03-18T07:18:30.923Z,5.97
2019-03-18T07:21:01.814Z,4.43
2019-03-18T07:23:32.553Z,4.40
2019-03-18T07:26:03.419Z,4.73
2019-03-18T07:28:34.374Z,5.10
2019-03-18T07:31:05.188Z,4.13
2019-03-18T07:33:35.724Z,4.03
2019-03-18T07:36:06.602Z,4.53
2019-03-18T07:38:37.119Z,4.87
2019-03-18T07:41:07.911Z,5.87
2019-03-18T07:43:38.647Z,4.47
2019-03-18T07:46:09.530Z,6.50
2019-03-18T07:48:40.354Z,6.13
2019-03-18T07:51:11.130Z,8.10
2019-03-18T07:53:41.932Z,5.80
2019-03-18T07:56:12.336Z,4.40
2019-03-18T07:58:43.170Z,4.90
2019-03-18T08:01:16.991Z,4.63
2019-03-18T08:03:47.816Z,5.67
2019-03-18T08:06:18.642Z,4.57
2019-03-18T08:08:49.462Z,4.13
2019-03-18T08:11:20.339Z,4.20
2019-03-18T08:13:51.190Z,5.63
2019-03-18T08:16:21.633Z,5.07
2019-03-18T08:18:52.536Z,3.80
2019-03-18T08:21:23.020Z,4.60
2019-03-18T08:23:53.803Z,6.13
2019-03-18T08:26:27.083Z,5.57
2019-03-18T08:28:57.087Z,4.57
2019-03-18T08:31:27.493Z,4.63
2019-03-18T08:33:58.372Z,6.13
2019-03-18T08:36:29.183Z,5.40
2019-03-18T08:39:00.046Z,7.00
2019-03-18T08:41:30.890Z,6.27
2019-03-18T08:44:01.718Z,4.70
2019-03-18T08:46:32.524Z,4.67
2019-03-18T08:49:03.408Z,4.43
2019-03-18T08:51:34.302Z,5.17
2019-03-18T08:54:05.360Z,4.00
2019-03-18T08:56:39.175Z,5.80
2019-03-18T08:59:10.023Z,5.40
2019-03-18T09:01:40.847Z,5.80
2019-03-18T09:04:11.578Z,6.00
2019-03-18T09:06:41.955Z,3.90
2019-03-18T09:09:12.818Z,5.50
2019-03-18T09:11:43.584Z,3.70
2019-03-18T09:14:14.286Z,5.53
2019-03-18T09:16:45.029Z,7.23
2019-03-18T09:19:16.514Z,6.83
2019-03-18T09:21:47.452Z,8.10
2019-03-18T09:24:18.273Z,5.70
2019-03-18T09:27:01.466Z,5.33
2019-03-18T09:29:21.282Z,7.23
2019-03-18T09:31:52.524Z,6.30
2019-03-18T09:34:23.336Z,5.83
2019-03-18T09:36:54.172Z,8.97
2019-03-18T09:39:25.325Z,5.17
2019-03-18T09:41:56.160Z,6.33
2019-03-18T09:44:27.264Z,5.60
2019-03-18T09:46:58.255Z,5.80
2019-03-18T09:49:28.986Z,5.50
2019-03-18T09:51:59.813Z,6.47
2019-03-18T09:54:30.625Z,5.93
2019-03-18T09:57:01.428Z,5.87
2019-03-18T09:59:32.344Z,6.13
2019-03-18T10:02:03.171Z,6.67
2019-03-18T10:04:34.040Z,5.63
2019-03-18T10:07:04.841Z,6.87
2019-03-18T10:09:35.803Z,5.90
2019-03-18T10:12:06.677Z,6.30
2019-03-18T10:14:37.648Z,5.57
2019-03-18T10:17:09.853Z,8.90
2019-03-18T10:19:40.856Z,7.00
2019-03-18T10:22:11.590Z,5.20
2019-03-18T10:24:42.448Z,8.07
2019-03-18T10:27:13.163Z,7.13
2019-03-18T10:29:43.919Z,6.20
2019-03-18T10:32:14.657Z,6.97
2019-03-18T10:34:45.466Z,5.97
2019-03-18T10:37:16.325Z,6.10
2019-03-18T10:39:47.027Z,6.40
2019-03-18T10:42:17.411Z,6.33
2019-03-18T10:44:48.300Z,6.80
2019-03-18T10:47:19.044Z,6.43
2019-03-18T10:49:49.827Z,9.87
2019-03-18T10:52:20.745Z,9.03
2019-03-18T10:54:51.630Z,7.20
2019-03-18T10:57:22.011Z,7.43
2019-03-18T10:59:52.801Z,4.90
2019-03-18T11:02:23.567Z,7.83
2019-03-18T11:04:54.404Z,6.27
2019-03-18T11:07:25.211Z,8.67
2019-03-18T11:09:55.737Z,11.83
2019-03-18T11:12:26.570Z,10.43
2019-03-18T11:14:57.440Z,6.53
2019-03-18T11:17:28.232Z,9.70
2019-03-18T11:19:59.169Z,11.30
2019-03-18T11:22:29.744Z,9.73
2019-03-18T11:25:00.443Z,8.53
2019-03-18T11:27:31.181Z,11.50
2019-03-18T11:30:01.935Z,9.10
2019-03-18T11:32:32.775Z,6.90
2019-03-18T11:35:03.602Z,9.20
2019-03-18T11:37:33.992Z,10.33
2019-03-18T11:40:11.103Z,7.83
2019-03-18T11:42:42.775Z,8.23
2019-03-18T11:45:14.937Z,8.00
2019-03-18T11:47:45.687Z,9.50
2019-03-18T11:50:20.519Z,13.27
2019-03-18T11:52:51.333Z,8.77
2019-03-18T11:55:24.517Z,8.00
2019-03-18T11:57:55.485Z,5.90
2019-03-18T12:00:26.796Z,9.27
2019-03-18T12:02:57.256Z,9.37
2019-03-18T12:05:28.784Z,7.87
2019-03-18T12:07:59.883Z,8.37
2019-03-18T12:10:30.868Z,11.80
2019-03-18T12:13:02.816Z,9.70
2019-03-18T12:15:36.378Z,10.20
2019-03-18T12:18:06.763Z,8.57
2019-03-18T12:20:38.715Z,13.70
2019-03-18T12:23:10.424Z,12.37
2019-03-18T12:25:42.312Z,11.10
2019-03-18T12:28:13.742Z,8.93
2019-03-18T12:30:45.585Z,6.23
2019-03-18T12:33:17.167Z,9.13
2019-03-18T12:35:49.600Z,8.27
2019-03-18T12:38:21.328Z,7.93
2019-03-18T12:40:52.097Z,13.57
2019-03-18T12:43:24.499Z,11.07
2019-03-18T12:45:55.194Z,7.20
2019-03-18T12:48:25.932Z,8.50
2019-03-18T12:50:56.928Z,11.33
2019-03-18T12:53:27.935Z,13.53
2019-03-18T12:55:58.642Z,11.33
2019-03-18T12:58:29.516Z,10.77
2019-03-18T13:01:11.892Z,10.97
2019-03-18T13:03:32.599Z,6.97
2019-03-18T13:06:03.417Z,12.17
2019-03-18T13:08:34.183Z,10.80
2019-03-18T13:11:05.025Z,8.40
2019-03-18T13:13:35.842Z,10.27
2019-03-18T13:16:06.563Z,6.43
2019-03-18T13:18:37.305Z,5.23
2019-03-18T13:21:08.474Z,10.37
2019-03-18T13:23:39.379Z,8.13
2019-03-18T13:26:10.103Z,5.67
2019-03-18T13:28:40.938Z,9.93
2019-03-18T13:31:11.671Z,8.27
2019-03-18T13:33:42.439Z,8.40
2019-03-18T13:36:14.700Z,8.10
2019-03-18T13:38:45.533Z,9.77
2019-03-18T13:41:16.375Z,7.73
2019-03-18T13:43:47.232Z,11.53
2019-03-18T13:46:18.671Z,10.43
2019-03-18T13:48:49.205Z,12.93
2019-03-18T13:51:21.211Z,10.07
2019-03-18T13:53:52.223Z,10.33
2019-03-18T13:56:23.111Z,9.00
2019-03-18T13:58:53.636Z,11.53
2019-03-18T14:01:27.031Z,13.00
2019-03-18T14:03:57.504Z,13.97
2019-03-18T14:06:28.323Z,9.50
2019-03-18T14:08:59.172Z,11.10
2019-03-18T14:11:30.093Z,10.70
2019-03-18T14:14:01.108Z,9.63
2019-03-18T14:16:31.973Z,12.57
2019-03-18T14:19:02.960Z,11.03
2019-03-18T14:21:33.908Z,13.33
2019-03-18T14:24:04.722Z,7.67
2019-03-18T14:26:35.208Z,6.93
2019-03-18T14:29:05.739Z,13.93
2019-03-18T14:31:36.487Z,9.93
2019-03-18T14:34:07.183Z,7.83
2019-03-18T14:36:37.936Z,8.77
2019-03-18T14:39:08.796Z,7.33
2019-03-18T14:41:39.222Z,8.23
2019-03-18T14:44:10.041Z,10.67
2019-03-18T14:46:40.900Z,8.63
2019-03-18T14:49:11.826Z,9.27
2019-03-18T14:51:45.984Z,7.50
2019-03-18T14:54:14.916Z,6.90
2019-03-18T14:56:45.762Z,8.57
2019-03-18T14:59:24.500Z,6.90
2019-03-18T15:01:55.078Z,7.53
2019-03-18T15:04:25.593Z,7.77
2019-03-18T15:06:56.373Z,7.67
2019-03-18T15:09:27.108Z,8.80
2019-03-18T15:11:57.935Z,5.90
2019-03-18T15:14:28.789Z,6.67
2019-03-18T15:16:59.637Z,7.60
2019-03-18T15:19:30.373Z,8.60
2019-03-18T15:22:02.836Z,9.17
2019-03-18T15:24:33.800Z,5.93
2019-03-18T15:27:04.824Z,6.77
2019-03-18T15:29:38.312Z,9.23
2019-03-18T15:32:09.155Z,9.30
2019-03-18T15:34:39.866Z,7.17
2019-03-18T15:37:13.230Z,6.40
2019-03-18T15:39:44.053Z,9.50
2019-03-18T15:42:17.425Z,5.03
2019-03-18T15:44:50.961Z,7.93
2019-03-18T15:47:21.848Z,12.80
2019-03-18T15:49:55.514Z,11.90
2019-03-18T15:52:26.071Z,7.07
2019-03-18T15:54:56.851Z,6.10
2019-03-18T15:57:29.806Z,5.27
2019-03-18T16:00:00.190Z,6.63
2019-03-18T16:02:30.883Z,4.13
2019-03-18T16:05:01.592Z,6.00
2019-03-18T16:07:32.428Z,5.03
2019-03-18T16:10:03.671Z,5.27
2019-03-18T16:12:34.525Z,5.20
2019-03-18T16:15:07.731Z,6.93
2019-03-18T16:17:41.455Z,4.50
2019-03-18T16:20:20.028Z,6.20
2019-03-18T16:22:50.749Z,5.63
2019-03-18T16:25:21.628Z,7.57
2019-03-18T16:27:52.436Z,6.47
2019-03-18T16:30:23.298Z,7.80
2019-03-18T16:32:54.168Z,8.40
2019-03-18T16:35:24.603Z,5.37
2019-03-18T16:37:55.373Z,4.70
2019-03-18T16:40:26.247Z,7.27
2019-03-18T16:42:56.957Z,6.07
2019-03-18T16:45:27.394Z,8.23
2019-03-18T16:47:58.203Z,5.70
2019-03-18T16:50:30.777Z,6.77
2019-03-18T16:53:01.619Z,7.10
2019-03-18T16:55:32.362Z,6.60
2019-03-18T16:58:06.155Z,5.70
2019-03-18T17:00:36.898Z,6.03
2019-03-18T17:03:07.766Z,6.67
2019-03-18T17:05:38.505Z,6.93
2019-03-18T17:08:09.438Z,9.10
2019-03-18T17:10:43.073Z,7.07
2019-03-18T17:13:14.047Z,7.53
2019-03-18T17:15:44.917Z,13.30
2019-03-18T17:18:17.889Z,7.00
2019-03-18T17:20:48.927Z,8.47
2019-03-18T17:23:19.852Z,6.93
2019-03-18T17:25:50.306Z,9.33
2019-03-18T17:28:21.117Z,5.93
2019-03-18T17:30:51.960Z,3.17
2019-03-18T17:33:22.800Z,4.00
2019-03-18T17:35:53.520Z,2.17
2019-03-18T17:38:24.394Z,4.93
2019-03-18T17:40:55.192Z,4.17
2019-03-18T17:43:26.047Z,4.60
2019-03-18T17:45:56.868Z,5.00
2019-03-18T17:48:27.641Z,3.53
2019-03-18T17:50:58.436Z,2.70
2019-03-18T17:53:28.866Z,5.63
2019-03-18T17:55:59.675Z,4.93
2019-03-18T17:58:30.537Z,4.87
2019-03-18T18:01:03.152Z,4.67
2019-03-18T18:03:34.054Z,3.40
2019-03-18T18:06:14.725Z,3.93
2019-03-18T18:08:45.597Z,6.37
2019-03-18T18:11:16.446Z,5.83
2019-03-18T18:13:47.371Z,5.73
2019-03-18T18:16:18.300Z,6.30
2019-03-18T18:18:49.211Z,7.50
2019-03-18T18:21:19.983Z,25.73
2019-03-18T18:23:50.860Z,12.50
2019-03-18T18:26:21.925Z,6.93
2019-03-18T18:28:52.786Z,8.33
2019-03-18T18:31:23.537Z,6.07
2019-03-18T18:33:54.357Z,7.57
2019-03-18T18:36:25.487Z,6.57
2019-03-18T18:38:56.459Z,6.27
2019-03-18T18:41:27.165Z,7.97
2019-03-18T18:43:58.014Z,6.10
2019-03-18T18:46:28.441Z,9.60
2019-03-18T18:48:59.260Z,5.03
2019-03-18T18:51:29.988Z,8.57
2019-03-18T18:54:03.469Z,7.67
2019-03-18T18:56:33.564Z,8.77
2019-03-18T18:59:04.352Z,6.47
2019-03-18T19:01:37.848Z,5.80
2019-03-18T19:04:10.225Z,9.70
2019-03-18T19:06:41.065Z,6.90
2019-03-18T19:09:13.505Z,12.17
2019-03-18T19:11:44.366Z,6.93
2019-03-18T19:14:15.201Z,9.20
2019-03-18T19:16:46.147Z,7.27
2019-03-18T19:19:16.974Z,8.43
2019-03-18T19:21:48.118Z,13.67
2019-03-18T19:24:18.970Z,19.80
2019-03-18T19:26:49.359Z,6.20
2019-03-18T19:29:20.171Z,7.57
2019-03-18T19:31:50.956Z,7.63
2019-03-18T19:34:21.704Z,6.03
2019-03-18T19:36:53.199Z,7.13
2019-03-18T19:39:48.509Z,5.57
2019-03-18T19:42:19.285Z,7.30
2019-03-18T19:44:53.444Z,7.07
2019-03-18T19:47:24.500Z,6.07
2019-03-18T19:49:55.924Z,6.83
2019-03-18T19:52:26.723Z,7.50
2019-03-18T19:54:57.198Z,6.57
2019-03-18T19:57:27.979Z,7.13
2019-03-18T20:00:00.000Z,6.53
2019-03-18T20:02:31.428Z,5.73
2019-03-18T20:05:14.353Z,6.97
2019-03-18T20:07:36.462Z,8.90
2019-03-18T20:10:15.445Z,8.13
2019-03-18T20:12:45.958Z,9.63
2019-03-18T20:15:18.019Z,9.77
2019-03-18T20:17:48.823Z,10.03
2019-03-18T20:20:21.613Z,8.17
2019-03-18T20:22:52.575Z,9.77
2019-03-18T20:25:23.499Z,7.30
2019-03-18T20:27:54.327Z,7.17
2019-03-18T20:30:25.189Z,7.83
2019-03-18T20:32:55.785Z,6.53
2019-03-18T20:35:26.622Z,8.77
2019-03-18T20:37:57.482Z,11.63
2019-03-18T20:40:28.300Z,6.53
2019-03-18T20:43:02.543Z,8.43
2019-03-18T20:45:33.368Z,5.73
2019-03-18T20:48:04.303Z,10.20
2019-03-18T20:50:35.128Z,6.67
2019-03-18T20:53:06.002Z,6.90
2019-03-18T20:55:37.004Z,10.33
2019-03-18T20:58:11.122Z,9.13
2019-03-18T21:00:42.183Z,11.33
2019-03-18T21:03:12.999Z,8.67
2019-03-18T21:05:44.921Z,10.50
2019-03-18T21:08:15.693Z,10.57
2019-03-18T21:10:48.059Z,8.30
2019-03-18T21:13:18.796Z,8.40
2019-03-18T21:15:49.666Z,10.60
2019-03-18T21:18:20.649Z,8.47
2019-03-18T21:20:51.295Z,8.20
2019-03-18T21:23:22.147Z,6.37
2019-03-18T21:25:54.520Z,9.37
2019-03-18T21:28:25.469Z,10.80
2019-03-18T21:30:59.280Z,10.37
2019-03-18T21:33:33.426Z,9.40
2019-03-18T21:36:04.308Z,7.53
2019-03-18T21:38:37.750Z,11.30
2019-03-18T21:41:08.714Z,11.33
2019-03-18T21:43:39.578Z,6.17
2019-03-18T21:46:10.208Z,8.10
2019-03-18T21:48:40.945Z,9.93
2019-03-18T21:51:11.514Z,7.77
2019-03-18T21:53:42.025Z,11.07
2019-03-18T21:56:12.881Z,10.70
2019-03-18T21:58:46.136Z,6.30
2019-03-18T22:01:17.012Z,9.03
2019-03-18T22:03:47.909Z,8.23
2019-03-18T22:06:18.798Z,10.43
2019-03-18T22:08:49.503Z,10.30
2019-03-18T22:11:20.443Z,11.33
2019-03-18T22:13:51.412Z,12.00
2019-03-18T22:16:22.447Z,8.00
2019-03-18T22:18:53.382Z,9.60
2019-03-18T22:21:24.378Z,10.67
2019-03-18T22:23:55.030Z,12.30
2019-03-18T22:26:25.846Z,12.67
2019-03-18T22:28:56.727Z,8.83
2019-03-18T22:31:27.611Z,10.77
2019-03-18T22:33:58.531Z,8.00
2019-03-18T22:36:29.386Z,13.60
2019-03-18T22:39:00.135Z,9.37
2019-03-18T22:41:30.865Z,9.53
2019-03-18T22:44:01.751Z,12.43
2019-03-18T22:46:32.288Z,6.40
2019-03-18T22:49:03.127Z,9.13
2019-03-18T22:51:34.011Z,8.53
2019-03-18T22:54:04.875Z,8.20
2019-03-18T22:56:35.739Z,10.30
2019-03-18T22:59:06.507Z,12.90
2019-03-18T23:01:37.474Z,11.13
2019-03-18T23:04:08.305Z,11.50
2019-03-18T23:06:39.185Z,10.57
2019-03-18T23:09:09.892Z,9.50
2019-03-18T23:11:40.736Z,18.00
2019-03-18T23:14:11.462Z,10.53
2019-03-18T23:16:42.501Z,10.77
2019-03-18T23:19:13.236Z,13.23
2019-03-18T23:21:44.047Z,10.07
2019-03-18T23:24:14.898Z,12.27
2019-03-18T23:26:45.947Z,10.90
2019-03-18T23:29:16.897Z,12.00
2019-03-18T23:31:49.258Z,10.37
2019-03-18T23:34:20.080Z,13.30
2019-03-18T23:36:51.038Z,11.90
2019-03-18T23:39:21.910Z,10.47
2019-03-18T23:41:52.693Z,12.43
2019-03-18T23:44:23.530Z,13.47
2019-03-18T23:46:53.934Z,11.83
2019-03-18T23:49:24.792Z,15.53
2019-03-18T23:51:55.620Z,8.40
2019-03-18T23:54:26.468Z,9.97
2019-03-18T23:56:57.202Z,9.07
2019-03-18T23:59:27.992Z,9.40
